createdAt,value
2023-01-02T00:02:03.179Z,101014.50
2023-01-02T00:04:29.780Z,100997.06
2023-01-02T00:06:56.273Z,101002.50
2023-01-02T00:09:22.793Z,100998.66
2023-01-02T00:11:49.252Z,100996.72
2023-01-02T00:14:15.670Z,101003.28
2023-01-02T00:16:42.167Z,100995.94
2023-01-02T00:19:08.787Z,100988.16
2023-01-02T00:21:35.460Z,100993.22
2023-01-02T00:24:02.325Z,100995.16
2023-01-02T00:26:30.213Z,100991.31
2023-01-02T00:28:56.967Z,100982.81
2023-01-02T00:31:23.555Z,100969.25
2023-01-02T00:33:50.005Z,100970.38
2023-01-02T00:36:16.523Z,100967.66
2023-01-02T00:38:43.015Z,100956.38
2023-01-02T00:41:10.149Z,100961.44
2023-01-02T00:43:37.369Z,100962.22
2023-01-02T00:46:10.897Z,100960.66
2023-01-02T00:48:38.539Z,100969.25
2023-01-02T00:51:05.102Z,100960.44
2023-01-02T00:53:31.618Z,100955.00
2023-01-02T00:55:58.122Z,100950.78
2023-01-02T00:58:24.605Z,100960.88
2023-01-02T01:00:51.130Z,100951.22
2023-01-02T01:03:17.663Z,100946.72
2023-01-02T01:05:44.431Z,100946.34
2023-01-02T01:08:10.897Z,100937.41
2023-01-02T01:10:38.097Z,100940.56
2023-01-02T01:13:05.625Z,100942.16
2023-01-02T01:15:33.723Z,100939.56
2023-01-02T01:18:00.514Z,100944.63
2023-01-02T01:20:27.077Z,100942.34
2023-01-02T01:22:53.587Z,100939.63
2023-01-02T01:25:20.128Z,100936.56
2023-01-02T01:27:46.679Z,100935.00
2023-01-02T01:30:13.449Z,100934.63
2023-01-02T01:32:39.989Z,100935.44
2023-01-02T01:35:06.961Z,100931.91
2023-01-02T01:37:33.386Z,100932.34
2023-01-02T01:39:59.876Z,100929.31
2023-01-02T01:42:32.540Z,100929.75
2023-01-02T01:44:59.080Z,100928.63
2023-01-02T01:47:40.567Z,100928.25
2023-01-02T01:50:12.232Z,100925.19
2023-01-02T01:52:45.635Z,100917.75
2023-01-02T01:55:26.305Z,100928.25
2023-01-02T01:57:58.471Z,100926.34
2023-01-02T02:00:25.014Z,100928.03
2023-01-02T02:02:57.795Z,100922.94
2023-01-02T02:05:26.641Z,100925.31
2023-01-02T02:08:19.597Z,100929.25
2023-01-02T02:10:47.106Z,100926.16
2023-01-02T02:13:14.496Z,100923.09
2023-01-02T02:15:58.210Z,100924.69
2023-01-02T02:18:42.522Z,100926.28
2023-01-02T02:21:46.714Z,100922.78
2023-01-02T02:24:49.695Z,100928.22
2023-01-02T02:27:22.059Z,100922.44
2023-01-02T02:29:48.545Z,100927.84
2023-01-02T02:32:24.030Z,100939.94
2023-01-02T02:35:00.158Z,100937.66
2023-01-02T02:37:45.661Z,100941.16
2023-01-02T02:40:18.210Z,100935.84
2023-01-02T02:42:56.839Z,100931.19
2023-01-02T02:45:32.102Z,100926.19
2023-01-02T02:48:07.596Z,100935.13
2023-01-02T02:50:48.060Z,100936.47
2023-01-02T02:53:26.179Z,100926.03
2023-01-02T02:55:55.895Z,100924.88
2023-01-02T02:58:25.219Z,100920.25
2023-01-02T03:01:02.026Z,100925.66
2023-01-02T03:03:28.669Z,100921.81
2023-01-02T03:06:08.325Z,100919.19
2023-01-02T03:08:44.878Z,100918.50
2023-01-02T03:11:12.728Z,100923.72
2023-01-02T03:13:42.668Z,100913.25
2023-01-02T03:16:30.144Z,100928.88
2023-01-02T03:19:07.265Z,100915.63
2023-01-02T03:21:46.166Z,100917.19
2023-01-02T03:24:16.900Z,100924.63
2023-01-02T03:26:48.621Z,100920.09
2023-01-02T03:29:23.706Z,100924.38
2023-01-02T03:31:55.918Z,100915.03
2023-01-02T03:34:27.396Z,100909.56
2023-01-02T03:36:58.612Z,100913.16
2023-01-02T03:39:29.249Z,100920.16
2023-01-02T03:42:34.588Z,100924.13
2023-01-02T03:45:11.007Z,100928.31
2023-01-02T03:47:55.938Z,100913.59
2023-01-02T03:50:31.569Z,100935.44
2023-01-02T03:52:58.626Z,100931.22
2023-01-02T03:55:27.052Z,100924.22
2023-01-02T03:58:10.680Z,100916.06
2023-01-02T04:00:46.728Z,100936.66
2023-01-02T04:03:22.060Z,100932.78
2023-01-02T04:05:51.375Z,100935.50
2023-01-02T04:08:41.009Z,100934.72
2023-01-02T04:11:09.117Z,100934.72
2023-01-02T04:13:41.576Z,100939.00
2023-01-02T04:16:11.029Z,100942.88
2023-01-02T04:18:46.572Z,100941.66
2023-01-02T04:21:18.510Z,100950.97
2023-01-02T04:23:52.155Z,100942.38
2023-01-02T04:26:24.651Z,100951.22
2023-01-02T04:28:51.305Z,100951.94
2023-01-02T04:31:37.488Z,100946.06
2023-01-02T04:34:06.757Z,100946.06
2023-01-02T04:36:38.443Z,100951.94
2023-01-02T04:39:04.986Z,100952.63
2023-01-02T04:41:32.951Z,100942.88
2023-01-02T04:43:59.968Z,100950.72
2023-01-02T04:46:28.098Z,100949.09
2023-01-02T04:48:55.946Z,100948.78
2023-01-02T04:51:23.024Z,100953.75
2023-01-02T04:53:50.928Z,100956.47
2023-01-02T04:56:18.000Z,100959.66
2023-01-02T04:58:45.798Z,100947.63
2023-01-02T05:01:14.990Z,100947.63
2023-01-02T05:03:43.501Z,100948.31
2023-01-02T05:06:10.828Z,100967.81
2023-01-02T05:08:38.098Z,100959.66
2023-01-02T05:11:18.527Z,100956.56
2023-01-02T05:13:45.382Z,100961.66
2023-01-02T05:16:12.544Z,100978.75
2023-01-02T05:18:39.477Z,100984.56
2023-01-02T05:21:29.989Z,100981.47
2023-01-02T05:23:58.135Z,100980.34
2023-01-02T05:26:25.012Z,100979.53
2023-01-02T05:28:55.162Z,100976.91
2023-01-02T05:31:22.377Z,100995.16
2023-01-02T05:33:56.197Z,100983.06
2023-01-02T05:36:24.671Z,100992.34
2023-01-02T05:38:52.605Z,100971.47
2023-01-02T05:41:20.694Z,101000.25
2023-01-02T05:43:47.361Z,100993.94
2023-01-02T05:46:16.496Z,100986.56
2023-01-02T05:48:43.905Z,100997.78
2023-01-02T05:51:12.664Z,100990.34
2023-01-02T05:53:39.378Z,100981.28
2023-01-02T05:56:08.596Z,101011.19
2023-01-02T05:58:36.705Z,101036.25
2023-01-02T06:01:08.103Z,101080.56
2023-01-02T06:03:34.909Z,101069.94
2023-01-02T06:06:10.295Z,101087.31
2023-01-02T06:08:37.822Z,101098.09
2023-01-02T06:11:05.785Z,101106.91
2023-01-02T06:13:33.915Z,101116.16
2023-01-02T06:16:01.652Z,101110.06
2023-01-02T06:18:30.266Z,101119.72
2023-01-02T06:21:07.956Z,101129.22
2023-01-02T06:23:34.517Z,101142.50
2023-01-02T06:26:06.874Z,101148.91
2023-01-02T06:28:33.963Z,101152.63
2023-01-02T06:31:02.430Z,101160.19
2023-01-02T06:33:29.957Z,101168.19
2023-01-02T06:36:04.996Z,101185.09
2023-01-02T06:38:31.507Z,101187.34
2023-01-02T06:41:00.213Z,101189.94
2023-01-02T06:43:28.696Z,101202.25
2023-01-02T06:45:59.834Z,101213.72
2023-01-02T06:48:26.747Z,101208.53
2023-01-02T06:50:53.409Z,101213.00
2023-01-02T06:53:19.937Z,101221.78
2023-01-02T06:55:52.894Z,101224.69
2023-01-02T06:58:20.191Z,101225.34
2023-01-02T07:00:47.340Z,101224.09
2023-01-02T07:03:14.540Z,101232.88
2023-01-02T07:05:40.980Z,101244.81
2023-01-02T07:08:07.720Z,101243.25
2023-01-02T07:10:34.694Z,101243.56
2023-01-02T07:13:01.355Z,101253.28
2023-01-02T07:15:27.844Z,101253.63
2023-01-02T07:17:55.459Z,101250.91
2023-01-02T07:20:22.105Z,101249.66
2023-01-02T07:22:52.719Z,101253.47
2023-01-02T07:25:20.382Z,101264.28
2023-01-02T07:27:47.170Z,101287.75
2023-01-02T07:30:14.283Z,101290.44
2023-01-02T07:32:40.800Z,101292.03
2023-01-02T07:35:08.079Z,101302.88
2023-01-02T07:37:34.598Z,101306.69
2023-01-02T07:40:01.154Z,101316.72
2023-01-02T07:42:27.911Z,101331.06
2023-01-02T07:44:54.376Z,101343.81
2023-01-02T07:47:20.851Z,101347.78
2023-01-02T07:49:47.380Z,101358.94
2023-01-02T07:52:13.827Z,101366.13
2023-01-02T07:54:40.334Z,101369.00
2023-01-02T07:57:07.165Z,101375.38
2023-01-02T07:59:33.623Z,101386.53
2023-01-02T08:02:00.238Z,101389.91
2023-01-02T08:04:27.012Z,101401.38
2023-01-02T08:06:53.535Z,101411.88
2023-01-02T08:09:20.003Z,101419.53
2023-01-02T08:11:46.475Z,101424.13
2023-01-02T08:14:15.968Z,101433.53
2023-01-02T08:16:46.415Z,101435.47
2023-01-02T08:19:12.829Z,101447.22
2023-01-02T08:21:39.321Z,101444.72
2023-01-02T08:24:08.114Z,101447.41
2023-01-02T08:26:34.632Z,101449.31
2023-01-02T08:29:01.507Z,101459.19
2023-01-02T08:31:27.981Z,101463.66
2023-01-02T08:33:54.453Z,101471.78
2023-01-02T08:36:21.025Z,101470.97
2023-01-02T08:38:47.545Z,101469.34
2023-01-02T08:41:15.243Z,101469.69
2023-01-02T08:43:41.737Z,101476.53
2023-01-02T08:46:09.885Z,101478.44
2023-01-02T08:48:37.071Z,101477.66
2023-01-02T08:51:04.477Z,101478.59
2023-01-02T08:53:31.013Z,101483.22
2023-01-02T08:56:19.387Z,101496.75
2023-01-02T08:58:53.327Z,101512.66
2023-01-02T09:01:20.016Z,101512.66
2023-01-02T09:03:46.763Z,101514.56
2023-01-02T09:06:19.721Z,101522.06
2023-01-02T09:08:48.353Z,101521.41
2023-01-02T09:11:18.515Z,101535.59
2023-01-02T09:13:45.342Z,101534.63
2023-01-02T09:16:12.509Z,101549.59
2023-01-02T09:18:40.224Z,101550.06
2023-01-02T09:21:06.986Z,101553.44
2023-01-02T09:23:33.932Z,101553.75
2023-01-02T09:26:02.002Z,101555.03
2023-01-02T09:28:29.418Z,101556.63
2023-01-02T09:30:56.208Z,101553.09
2023-01-02T09:33:23.282Z,101555.34
2023-01-02T09:35:50.822Z,101572.53
2023-01-02T09:38:17.503Z,101579.84
2023-01-02T09:40:54.047Z,101589.25
2023-01-02T09:43:45.613Z,101597.38
2023-01-02T09:46:41.572Z,101594.66
2023-01-02T09:49:13.626Z,101596.41
2023-01-02T09:51:40.496Z,101602.78
2023-01-02T09:54:15.218Z,101605.00
2023-01-02T09:56:47.356Z,101617.91
2023-01-02T09:59:40.024Z,101622.03
2023-01-02T10:02:06.584Z,101621.88
2023-01-02T10:04:38.724Z,101625.53
2023-01-02T10:07:12.057Z,101629.34
2023-01-02T10:09:50.439Z,101624.56
2023-01-02T10:12:32.049Z,101633.50
2023-01-02T10:15:02.117Z,101618.06
2023-01-02T10:17:35.115Z,101624.56
2023-01-02T10:20:19.018Z,101623.31
2023-01-02T10:22:56.043Z,101629.50
2023-01-02T10:25:30.335Z,101616.78
2023-01-02T10:28:07.031Z,101620.28
2023-01-02T10:30:43.494Z,101607.53
2023-01-02T10:33:36.307Z,101610.59
2023-01-02T10:36:03.352Z,101614.25
2023-01-02T10:38:38.845Z,101619.00
2023-01-02T10:41:06.186Z,101630.34
2023-01-02T10:43:36.970Z,101625.25
2023-01-02T10:46:04.567Z,101642.59
2023-01-02T10:48:35.081Z,101643.38
2023-01-02T10:51:05.942Z,101651.03
2023-01-02T10:53:36.998Z,101651.81
2023-01-02T10:56:07.224Z,101647.53
2023-01-02T10:58:35.085Z,101645.13
2023-01-02T11:01:13.811Z,101648.94
2023-01-02T11:03:40.539Z,101639.25
2023-01-02T11:06:28.984Z,101650.53
2023-01-02T11:08:58.152Z,101655.47
2023-01-02T11:11:26.157Z,101654.84
2023-01-02T11:13:57.255Z,101652.78
2023-01-02T11:16:27.072Z,101652.94
2023-01-02T11:18:58.669Z,101659.63
2023-01-02T11:21:27.422Z,101678.75
2023-01-02T11:24:02.654Z,101673.34
2023-01-02T11:26:31.817Z,101681.63
2023-01-02T11:29:08.883Z,101674.94
2023-01-02T11:31:41.551Z,101685.78
2023-01-02T11:34:18.232Z,101689.75
2023-01-02T11:36:45.165Z,101689.94
2023-01-02T11:39:24.041Z,101695.03
2023-01-02T11:42:32.351Z,101683.09
2023-01-02T11:45:10.850Z,101688.03
2023-01-02T11:47:42.969Z,101686.59
2023-01-02T11:50:26.046Z,101691.38
2023-01-02T11:53:18.479Z,101697.56
2023-01-02T11:55:53.165Z,101690.25
2023-01-02T11:58:41.409Z,101681.84
2023-01-02T12:01:35.743Z,101699.50
2023-01-02T12:04:02.362Z,101706.50
2023-01-02T12:06:38.008Z,101709.03
2023-01-02T12:09:23.255Z,101710.63
2023-01-02T12:12:08.792Z,101701.69
2023-01-02T12:14:35.219Z,101701.38
2023-01-02T12:17:24.330Z,101698.38
2023-01-02T12:20:14.894Z,101698.84
2023-01-02T12:22:59.600Z,101704.75
2023-01-02T12:25:34.877Z,101708.25
2023-01-02T12:28:34.964Z,101721.00
2023-01-02T12:31:14.256Z,101715.91
2023-01-02T12:33:46.465Z,101722.09
2023-01-02T12:36:31.715Z,101731.03
2023-01-02T12:39:07.270Z,101726.53
2023-01-02T12:42:02.698Z,101713.00
2023-01-02T12:44:49.854Z,101715.72
2023-01-02T12:47:59.363Z,101720.19
2023-01-02T12:50:49.268Z,101726.72
2023-01-02T12:53:44.780Z,101729.44
2023-01-02T12:56:32.349Z,101738.34
2023-01-02T12:59:34.609Z,101738.84
2023-01-02T13:02:13.578Z,101742.81
2023-01-02T13:04:51.635Z,101733.56
2023-01-02T13:07:34.502Z,101750.13
2023-01-02T13:10:04.739Z,101754.59
2023-01-02T13:12:35.015Z,101739.59
2023-01-02T13:15:17.039Z,101750.44
2023-01-02T13:17:57.495Z,101754.41
2023-01-02T13:20:54.535Z,101747.59
2023-01-02T13:23:29.319Z,101741.84
2023-01-02T13:26:00.854Z,101751.22
2023-01-02T13:28:27.571Z,101759.19
2023-01-02T13:31:05.474Z,101758.72
2023-01-02T13:33:52.435Z,101750.72
2023-01-02T13:36:23.011Z,101765.50
2023-01-02T13:38:53.642Z,101764.22
2023-01-02T13:41:21.280Z,101775.69
2023-01-02T13:43:55.271Z,101767.69
2023-01-02T13:47:01.663Z,101767.69
2023-01-02T13:49:19.822Z,101777.41
2023-01-02T13:51:46.424Z,101772.63
2023-01-02T13:54:20.573Z,101771.50
2023-01-02T13:57:25.231Z,101773.41
2023-01-02T14:00:24.611Z,101771.81
2023-01-02T14:03:22.883Z,101777.56
2023-01-02T14:05:58.629Z,101789.19
2023-01-02T14:08:26.666Z,101793.28
2023-01-02T14:11:00.166Z,101798.69
2023-01-02T14:13:37.162Z,101790.28
2023-01-02T14:16:12.792Z,101799.81
2023-01-02T14:18:45.861Z,101803.31
2023-01-02T14:21:15.761Z,101815.44
2023-01-02T14:24:16.147Z,101810.63
2023-01-02T14:26:37.434Z,101809.34
2023-01-02T14:29:16.429Z,101826.38
2023-01-02T14:31:43.348Z,101823.66
2023-01-02T14:34:21.719Z,101819.06
2023-01-02T14:36:51.248Z,101818.25
2023-01-02T14:39:24.038Z,101845.94
2023-01-02T14:42:08.885Z,101849.13
2023-01-02T14:44:42.123Z,101849.44
2023-01-02T14:47:23.541Z,101845.94
2023-01-02T14:49:57.671Z,101853.25
2023-01-02T14:52:32.198Z,101852.63
2023-01-02T14:55:27.214Z,101862.66
2023-01-02T14:57:54.623Z,101862.66
2023-01-02T15:00:28.598Z,101875.41
2023-01-02T15:03:06.113Z,101870.31
2023-01-02T15:05:38.043Z,101874.41
2023-01-02T15:08:08.300Z,101886.34
2023-01-02T15:10:54.954Z,101874.72
2023-01-02T15:13:22.020Z,101882.03
2023-01-02T15:15:53.756Z,101883.94
2023-01-02T15:18:34.479Z,101878.84
2023-01-02T15:21:12.959Z,101894.09
2023-01-02T15:23:47.587Z,101899.31
2023-01-02T15:26:34.380Z,101903.22
2023-01-02T15:29:06.913Z,101896.03
2023-01-02T15:31:40.092Z,101912.09
2023-01-02T15:34:06.618Z,101918.09
2023-01-02T15:36:37.902Z,101930.34
2023-01-02T15:39:39.712Z,101934.47
2023-01-02T15:42:29.726Z,101941.94
2023-01-02T15:45:10.054Z,101937.66
2023-01-02T15:47:44.633Z,101952.59
2023-01-02T15:50:16.665Z,101947.66
2023-01-02T15:52:45.398Z,101956.38
2023-01-02T15:55:17.769Z,101965.00
2023-01-02T15:57:54.535Z,101975.81
2023-01-02T16:00:40.159Z,101975.50
2023-01-02T16:03:08.347Z,101967.41
2023-01-02T16:06:07.565Z,101980.91
2023-01-02T16:08:37.908Z,101989.81
2023-01-02T16:11:05.176Z,101993.94
2023-01-02T16:13:54.744Z,101993.94
2023-01-02T16:16:22.291Z,101992.31
2023-01-02T16:18:53.497Z,101999.13
2023-01-02T16:21:21.171Z,101995.03
2023-01-02T16:23:53.401Z,102006.38
2023-01-02T16:26:26.779Z,102005.56
2023-01-02T16:28:53.366Z,102010.66
2023-01-02T16:31:21.693Z,102018.78
2023-01-02T16:33:48.616Z,102021.00
2023-01-02T16:36:15.054Z,102025.88
2023-01-02T16:38:53.161Z,102025.88
2023-01-02T16:41:34.656Z,102021.88
2023-01-02T16:44:12.165Z,102032.22
2023-01-02T16:46:39.667Z,102037.41
2023-01-02T16:49:07.513Z,102053.94
2023-01-02T16:51:34.133Z,102049.75
2023-01-02T16:54:00.667Z,102061.63
2023-01-02T16:56:27.154Z,102056.53
2023-01-02T16:58:53.910Z,102069.09
2023-01-02T17:01:22.609Z,102064.38
2023-01-02T17:03:49.320Z,102052.59
2023-01-02T17:06:18.142Z,102069.59
2023-01-02T17:08:44.693Z,102076.09
2023-01-02T17:11:16.795Z,102079.91
2023-01-02T17:13:43.276Z,102085.41
2023-01-02T17:16:10.291Z,102091.09
2023-01-02T17:18:36.827Z,102099.00
2023-01-02T17:21:03.658Z,102109.28
2023-01-02T17:23:30.213Z,102101.19
2023-01-02T17:25:56.700Z,102108.28
2023-01-02T17:28:23.369Z,102110.50
2023-01-02T17:30:50.121Z,102108.88
2023-01-02T17:33:17.560Z,102109.97
2023-01-02T17:35:45.723Z,102116.28
2023-01-02T17:38:12.186Z,102117.13
2023-01-02T17:40:38.993Z,102115.63
2023-01-02T17:43:05.855Z,102113.00
2023-01-02T17:45:32.537Z,102120.09
2023-01-02T17:48:05.666Z,102127.53
2023-01-02T17:50:36.866Z,102128.72
2023-01-02T17:53:03.336Z,102133.59
2023-01-02T17:55:29.880Z,102140.88
2023-01-02T17:57:56.518Z,102140.06
2023-01-02T18:00:23.585Z,102131.84
2023-01-02T18:02:52.503Z,102152.91
2023-01-02T18:05:19.142Z,102141.63
2023-01-02T18:07:45.678Z,102153.50
2023-01-02T18:10:17.332Z,102160.88
2023-01-02T18:12:46.733Z,102162.84
2023-01-02T18:15:15.292Z,102162.84
2023-01-02T18:17:41.865Z,102174.72
2023-01-02T18:20:13.739Z,102185.56
2023-01-02T18:22:47.918Z,102179.13
2023-01-02T18:25:20.407Z,102196.13
2023-01-02T18:27:48.162Z,102191.66
2023-01-02T18:30:25.289Z,102198.47
2023-01-02T18:33:11.162Z,102212.25
2023-01-02T18:38:39.524Z,102216.31
2023-01-02T18:41:26.410Z,102220.19
2023-01-02T18:43:59.903Z,102222.56
2023-01-02T18:47:03.970Z,102234.63
2023-01-02T18:49:24.747Z,102225.94
2023-01-02T18:52:14.306Z,102245.34
2023-01-02T18:54:43.631Z,102248.28
2023-01-02T18:57:16.046Z,102253.13
2023-01-02T18:59:45.518Z,102255.44
2023-01-02T19:02:28.993Z,102268.47
2023-01-02T19:04:57.330Z,102271.47
2023-01-02T19:07:32.705Z,102279.25
2023-01-02T19:10:08.329Z,102277.06
2023-01-02T19:13:04.695Z,102262.53
2023-01-02T19:15:49.520Z,102272.50
2023-01-02T19:18:22.805Z,102278.16
2023-01-02T19:20:55.768Z,102280.94
2023-01-02T19:23:28.256Z,102283.13
2023-01-02T19:25:56.819Z,102291.47
2023-01-02T19:28:29.051Z,102287.75
2023-01-02T19:30:56.435Z,102300.19
2023-01-02T19:33:36.438Z,102310.53
2023-01-02T19:36:04.725Z,102319.44
2023-01-02T19:38:33.898Z,102316.25
2023-01-02T19:41:00.997Z,102319.50
2023-01-02T19:43:27.508Z,102317.34
2023-01-02T19:45:54.115Z,102323.56
2023-01-02T19:48:20.621Z,102325.22
2023-01-02T19:50:47.201Z,102325.75
2023-01-02T19:53:13.640Z,102326.63
2023-01-02T19:55:40.166Z,102336.56
2023-01-02T19:58:06.632Z,102350.38
2023-01-02T20:00:33.282Z,102337.44
2023-01-02T20:03:00.366Z,102342.59
2023-01-02T20:05:28.669Z,102346.88
2023-01-02T20:07:57.813Z,102352.50
2023-01-02T20:10:24.647Z,102350.91
2023-01-02T20:12:51.489Z,102350.41
2023-01-02T20:15:23.774Z,102355.28
2023-01-02T20:17:51.734Z,102365.84
2023-01-02T20:20:24.563Z,102365.84
2023-01-02T20:22:52.102Z,102369.56
2023-01-02T20:25:23.877Z,102369.56
2023-01-02T20:27:51.366Z,102378.22
2023-01-02T20:30:23.905Z,102381.16
2023-01-02T20:32:51.303Z,102376.09
2023-01-02T20:35:17.970Z,102379.34
2023-01-02T20:37:44.473Z,102377.44
2023-01-02T20:40:11.575Z,102368.53
2023-01-02T20:42:38.183Z,102383.91
2023-01-02T20:45:05.893Z,102392.28
2023-01-02T20:47:32.530Z,102392.00
2023-01-02T20:49:59.074Z,102392.81
2023-01-02T20:52:25.567Z,102407.66
2023-01-02T20:54:52.115Z,102405.19
2023-01-02T20:57:18.746Z,102412.75
2023-01-02T20:59:45.264Z,102406.56
2023-01-02T21:02:11.851Z,102410.63
2023-01-02T21:04:38.433Z,102411.44
2023-01-02T21:07:05.942Z,102410.13
2023-01-02T21:09:32.990Z,102416.38
2023-01-02T21:11:59.502Z,102426.63
2023-01-02T21:14:25.916Z,102424.47
2023-01-02T21:16:52.475Z,102427.44
2023-01-02T21:19:19.149Z,102422.56
2023-01-02T21:21:45.602Z,102426.63
2023-01-02T21:24:12.438Z,102432.63
2023-01-02T21:26:38.886Z,102445.53
2023-01-02T21:29:05.602Z,102444.72
2023-01-02T21:31:32.085Z,102437.50
2023-01-02T21:33:58.665Z,102446.91
2023-01-02T21:36:25.479Z,102445.81
2023-01-02T21:38:52.141Z,102449.06
2023-01-02T21:41:38.841Z,102449.34
2023-01-02T21:44:05.414Z,102447.69
2023-01-02T21:46:31.900Z,102459.81
2023-01-02T21:48:58.462Z,102459.53
2023-01-02T21:51:30.647Z,102453.38
2023-01-02T21:54:00.250Z,102451.72
2023-01-02T21:56:27.363Z,102463.09
2023-01-02T21:58:55.037Z,102474.63
2023-01-02T22:01:21.568Z,102476.53
2023-01-02T22:03:48.237Z,102474.63
2023-01-02T22:06:14.697Z,102478.69
2023-01-02T22:08:41.257Z,102483.28
2023-01-02T22:11:26.274Z,102479.50
2023-01-02T22:13:52.811Z,102483.81
2023-01-02T22:16:19.377Z,102485.41
2023-01-02T22:18:46.267Z,102485.16
2023-01-02T22:21:12.746Z,102497.53
2023-01-02T22:23:39.243Z,102492.16
2023-01-02T22:26:05.889Z,102502.34
2023-01-02T22:28:32.639Z,102510.16
2023-01-02T22:30:59.187Z,102504.25
2023-01-02T22:33:25.850Z,102522.53
2023-01-02T22:35:52.499Z,102520.41
2023-01-02T22:38:18.949Z,102523.38
2023-01-02T22:40:45.558Z,102530.66
2023-01-02T22:43:17.946Z,102532.81
2023-01-02T22:45:50.642Z,102528.22
2023-01-02T22:48:27.766Z,102537.09
2023-01-02T22:50:58.404Z,102534.97
2023-01-02T22:53:31.907Z,102539.56
2023-01-02T22:55:58.641Z,102539.81
2023-01-02T22:58:25.461Z,102551.38
2023-01-02T23:01:02.694Z,102548.97
2023-01-02T23:03:35.817Z,102548.97
2023-01-02T23:06:02.323Z,102544.41
2023-01-02T23:08:28.931Z,102549.75
2023-01-02T23:10:55.468Z,102553.00
2023-01-02T23:13:22.010Z,102549.78
2023-01-02T23:16:07.212Z,102550.31
2023-01-02T23:18:56.618Z,102565.63
2023-01-02T23:21:25.647Z,102561.63
2023-01-02T23:23:52.626Z,102564.88
2023-01-02T23:26:19.877Z,102567.56
2023-01-02T23:31:34.115Z,102569.97
2023-01-02T23:34:00.609Z,102575.34
2023-01-02T23:36:27.846Z,102578.31
2023-01-02T23:38:54.314Z,102571.28
2023-01-02T23:41:20.788Z,102584.22
2023-01-02T23:43:47.337Z,102580.19
2023-01-02T23:46:14.007Z,102578.25
2023-01-02T23:48:40.512Z,102574.75
2023-01-02T23:51:07.017Z,102591.72
2023-01-02T23:53:33.578Z,102584.19
2023-01-02T23:56:00.433Z,102577.72
2023-01-02T23:58:26.958Z,102585.78
